Time;durP1;ratioP1;P1;durP2;ratioP2;P2;SDS_P1;SDS_P2;PMS_P1;PMS_P2;Temp;Humidity;BMP_temperature;BMP_pressure;BME280_temperature;BME280_humidity;BME280_pressure;Samples;Min_cycle;Max_cycle;Signal;HPM_P1;HPM_P2
2022/11/23 00:01:44;;;;;;;2.80;2.60;;;8.70;99.90;;;;;;5034913;28;20269;-96
2022/11/23 00:04:12;;;;;;;4.83;3.03;;;8.70;99.90;;;;;;5036933;28;20187;-96
2022/11/23 00:06:38;;;;;;;5.23;2.90;;;8.70;99.90;;;;;;5019325;28;20237;-95
2022/11/23 00:09:04;;;;;;;1.90;1.80;;;8.70;99.90;;;;;;5034002;28;20225;-94
2022/11/23 00:11:30;;;;;;;3.47;3.17;;;8.70;99.90;;;;;;5035276;28;20529;-95
2022/11/23 00:13:56;;;;;;;2.00;1.90;;;8.70;99.90;;;;;;5038453;28;20228;-96
2022/11/23 00:16:24;;;;;;;2.53;2.33;;;8.80;99.90;;;;;;5036775;28;20190;-94
2022/11/23 00:18:57;;;;;;;5.00;2.70;;;8.70;99.90;;;;;;5037106;28;20269;-91
2022/11/23 00:21:26;;;;;;;2.83;2.63;;;8.70;99.90;;;;;;5036569;28;20234;-95
2022/11/23 00:23:52;;;;;;;4.93;2.10;;;8.70;99.90;;;;;;5036967;28;20218;-92
2022/11/23 00:26:18;;;;;;;4.20;3.20;;;8.70;99.90;;;;;;5037997;28;20207;-94
2022/11/23 00:28:45;;;;;;;4.03;3.73;;;8.80;99.90;;;;;;5036429;28;20275;-96
2022/11/23 00:31:16;;;;;;;2.27;2.07;;;8.70;99.90;;;;;;5024407;28;20191;-95
2022/11/23 00:33:47;;;;;;;3.77;1.93;;;8.80;99.90;;;;;;5040572;28;20286;-93
2022/11/23 00:36:15;;;;;;;7.43;2.77;;;8.80;99.90;;;;;;5038904;28;20238;-95
2022/11/23 00:38:42;;;;;;;5.00;2.03;;;8.80;99.90;;;;;;5041757;28;20628;-95
2022/11/23 00:41:11;;;;;;;2.23;1.40;;;8.80;99.90;;;;;;5041716;28;20222;-96
2022/11/23 00:43:37;;;;;;;3.50;2.73;;;8.80;99.90;;;;;;5043575;28;20217;-94
2022/11/23 00:46:18;;;;;;;2.83;2.57;;;8.90;99.90;;;;;;5044493;28;20266;-93
2022/11/23 00:48:46;;;;;;;7.37;2.37;;;8.90;99.90;;;;;;5040849;28;20568;-95
2022/11/23 00:51:15;;;;;;;2.80;2.37;;;8.90;99.90;;;;;;5060018;28;20221;-94
2022/11/23 00:53:41;;;;;;;12.60;2.80;;;8.90;99.90;;;;;;5038898;28;20218;-94
2022/11/23 00:56:07;;;;;;;2.37;2.27;;;9.00;99.90;;;;;;5039656;28;20690;-92
2022/11/23 00:58:37;;;;;;;3.47;2.63;;;9.00;99.90;;;;;;5038880;28;20213;-95
2022/11/23 01:01:08;;;;;;;2.40;1.67;;;9.00;99.90;;;;;;5038492;28;20206;-95
2022/11/23 01:03:35;;;;;;;3.70;3.37;;;9.00;99.90;;;;;;5036251;28;20304;-94
2022/11/23 01:06:05;;;;;;;5.10;2.90;;;9.00;99.90;;;;;;5038693;28;20477;-91
2022/11/23 01:08:31;;;;;;;4.53;2.87;;;9.00;99.90;;;;;;5036205;28;20209;-91
2022/11/23 01:11:03;;;;;;;4.13;3.03;;;9.00;99.90;;;;;;5039518;28;20645;-96
2022/11/23 01:13:29;;;;;;;2.80;2.07;;;9.00;99.90;;;;;;5039415;28;20197;-95
2022/11/23 01:15:56;;;;;;;3.20;2.77;;;9.00;99.90;;;;;;5022942;28;20196;-96
2022/11/23 01:18:23;;;;;;;2.53;2.33;;;9.00;99.90;;;;;;5039558;28;20241;-94
2022/11/23 01:20:49;;;;;;;2.73;2.53;;;9.00;99.90;;;;;;5036815;28;20501;-95
2022/11/23 01:23:14;;;;;;;3.50;3.03;;;9.10;99.90;;;;;;5022907;28;20296;-95
2022/11/23 01:25:40;;;;;;;3.13;2.40;;;9.10;99.90;;;;;;5035656;28;20219;-95
2022/11/23 01:28:06;;;;;;;6.53;3.87;;;9.10;99.90;;;;;;5040469;28;20264;-95
2022/11/23 01:30:33;;;;;;;2.47;2.33;;;9.10;99.90;;;;;;5035006;28;20237;-96
2022/11/23 01:32:59;;;;;;;4.43;3.40;;;9.20;99.90;;;;;;5037748;28;20226;-95
2022/11/23 01:35:25;;;;;;;4.13;3.00;;;9.10;99.90;;;;;;5038655;28;20316;-95
2022/11/23 01:37:51;;;;;;;3.93;3.30;;;9.20;99.90;;;;;;5017577;28;20303;-95
2022/11/23 01:40:17;;;;;;;6.00;2.83;;;9.20;99.90;;;;;;5006945;28;20194;-94
2022/11/23 01:42:53;;;;;;;3.77;3.37;;;9.10;99.90;;;;;;5003245;28;20305;-94
2022/11/23 01:45:40;;;;;;;3.90;2.57;;;9.20;99.90;;;;;;5036674;28;20473;-94
2022/11/23 01:48:23;;;;;;;5.13;4.23;;;9.10;99.90;;;;;;5054502;28;20301;-94
2022/11/23 01:50:53;;;;;;;3.50;2.80;;;9.10;99.90;;;;;;5038026;28;20307;-94
2022/11/23 01:53:20;;;;;;;2.77;2.33;;;9.10;99.90;;;;;;5038591;28;20241;-95
2022/11/23 01:55:48;;;;;;;4.23;3.87;;;9.10;99.90;;;;;;5033710;28;20218;-92
2022/11/23 01:58:19;;;;;;;5.27;3.33;;;9.10;99.90;;;;;;5037560;28;20233;-94
2022/11/23 02:00:45;;;;;;;3.90;2.27;;;9.10;99.90;;;;;;5037329;28;20186;-90
2022/11/23 02:03:12;;;;;;;4.60;3.67;;;9.10;99.90;;;;;;5039554;28;20210;-95
2022/11/23 02:05:45;;;;;;;5.30;2.83;;;9.10;99.90;;;;;;5036170;28;20217;-94
2022/11/23 02:08:13;;;;;;;5.33;2.17;;;9.10;99.90;;;;;;5037783;28;20214;-95
2022/11/23 02:10:39;;;;;;;3.20;3.00;;;9.10;99.90;;;;;;5037661;28;20214;-95
2022/11/23 02:13:09;;;;;;;5.27;2.73;;;9.10;99.90;;;;;;5037141;28;20194;-95
2022/11/23 02:15:36;;;;;;;5.87;4.23;;;9.10;99.90;;;;;;5049443;28;20218;-94
2022/11/23 02:18:05;;;;;;;5.73;3.43;;;9.20;99.90;;;;;;5039584;28;20221;-92
2022/11/23 02:20:31;;;;;;;4.87;3.17;;;9.20;99.90;;;;;;5036974;28;20218;-93
2022/11/23 02:23:09;;;;;;;5.73;4.47;;;9.20;99.90;;;;;;5038608;28;20219;-96
2022/11/23 02:25:44;;;;;;;3.30;2.43;;;9.20;99.90;;;;;;5036983;28;20236;-95
2022/11/23 02:28:20;;;;;;;3.00;2.80;;;9.20;99.90;;;;;;5041027;28;20808;-93
2022/11/23 02:30:49;;;;;;;8.83;4.03;;;9.20;99.90;;;;;;5037088;28;20651;-93
2022/11/23 02:33:14;;;;;;;5.60;3.73;;;9.20;99.90;;;;;;5037112;28;20275;-95
2022/11/23 02:35:56;;;;;;;4.60;2.80;;;9.20;99.90;;;;;;5040726;28;20215;-95
2022/11/23 02:38:30;;;;;;;5.03;4.00;;;9.20;99.90;;;;;;5039049;28;20222;-95
2022/11/23 02:40:56;;;;;;;11.37;3.37;;;9.20;99.90;;;;;;5038472;28;20250;-94
2022/11/23 02:43:23;;;;;;;3.17;2.87;;;9.20;99.90;;;;;;5006512;28;20218;-95
2022/11/23 02:45:57;;;;;;;5.83;3.53;;;9.20;99.90;;;;;;5015641;28;20186;-96
2022/11/23 02:48:23;;;;;;;4.27;3.77;;;9.10;99.90;;;;;;5038014;28;20209;-96
2022/11/23 02:50:49;;;;;;;4.83;4.30;;;9.10;99.90;;;;;;5038385;28;20206;-96
2022/11/23 02:53:16;;;;;;;6.80;3.13;;;9.20;99.90;;;;;;5037679;28;20232;-94
2022/11/23 02:55:42;;;;;;;20.30;4.03;;;9.20;99.90;;;;;;5015099;28;20218;-96
2022/11/23 02:58:08;;;;;;;7.20;4.03;;;9.20;99.90;;;;;;5038084;28;20193;-96
2022/11/23 03:00:34;;;;;;;6.47;3.23;;;9.20;99.90;;;;;;5025367;28;20699;-96
2022/11/23 03:03:01;;;;;;;5.30;3.83;;;9.20;99.90;;;;;;5036483;28;20214;-95
2022/11/23 03:05:27;;;;;;;3.40;3.20;;;9.20;99.90;;;;;;5038991;28;20610;-95
2022/11/23 03:07:53;;;;;;;4.83;4.33;;;9.20;99.90;;;;;;5037866;28;20249;-96
2022/11/23 03:10:20;;;;;;;7.37;4.23;;;9.20;99.90;;;;;;5041015;28;20191;-96
2022/11/23 03:12:46;;;;;;;7.10;5.07;;;9.20;99.90;;;;;;5040507;28;20577;-94
2022/11/23 03:15:12;;;;;;;3.40;2.50;;;9.20;99.90;;;;;;5039011;28;20214;-94
2022/11/23 03:17:38;;;;;;;5.87;4.53;;;9.20;99.90;;;;;;5037792;28;20232;-96
2022/11/23 03:20:05;;;;;;;17.20;4.87;;;9.20;99.90;;;;;;5020617;28;20653;-93
2022/11/23 03:22:30;;;;;;;8.73;6.23;;;9.20;99.90;;;;;;5038561;28;20251;-94
2022/11/23 03:24:57;;;;;;;13.57;4.60;;;9.20;99.90;;;;;;5037521;28;20189;-94
2022/11/23 03:27:23;;;;;;;7.27;5.63;;;9.20;99.90;;;;;;5036535;28;20297;-95
2022/11/23 03:29:49;;;;;;;5.10;3.67;;;9.20;99.90;;;;;;5037481;28;20345;-93
2022/11/23 03:32:15;;;;;;;5.07;4.20;;;9.30;99.90;;;;;;5039725;28;20259;-96
2022/11/23 03:34:40;;;;;;;6.03;5.07;;;9.30;99.90;;;;;;5025229;28;20375;-96
2022/11/23 03:37:06;;;;;;;19.90;5.97;;;9.30;99.90;;;;;;5040033;28;20201;-93
2022/11/23 03:39:32;;;;;;;11.63;4.87;;;9.30;99.90;;;;;;5036303;28;20234;-94
2022/11/23 03:41:58;;;;;;;7.40;4.40;;;9.30;99.90;;;;;;5019917;28;20236;-93
2022/11/23 03:44:24;;;;;;;6.17;4.17;;;9.30;99.90;;;;;;5019843;28;20499;-95
2022/11/23 03:46:50;;;;;;;11.57;5.33;;;9.30;99.90;;;;;;5019231;28;20215;-94
2022/11/23 03:49:16;;;;;;;10.87;7.80;;;9.30;99.90;;;;;;5020408;28;20236;-95
2022/11/23 03:51:41;;;;;;;7.60;5.77;;;9.40;99.90;;;;;;5018864;28;20191;-94
2022/11/23 03:54:07;;;;;;;5.60;5.03;;;9.40;99.90;;;;;;5022114;28;20286;-95
2022/11/23 03:56:33;;;;;;;7.13;5.10;;;9.40;99.90;;;;;;5025046;28;20627;-96
2022/11/23 03:58:59;;;;;;;9.97;5.57;;;9.30;99.90;;;;;;5021215;28;20348;-95
2022/11/23 04:01:25;;;;;;;16.00;5.07;;;9.30;99.90;;;;;;5046914;28;20305;-94
2022/11/23 04:03:51;;;;;;;9.40;6.53;;;9.40;99.90;;;;;;5045182;28;20220;-96
2022/11/23 04:06:17;;;;;;;7.70;5.60;;;9.40;99.90;;;;;;5048565;28;20221;-96
2022/11/23 04:08:43;;;;;;;24.10;6.00;;;9.30;99.90;;;;;;5050929;28;20229;-95
2022/11/23 04:11:09;;;;;;;6.27;4.00;;;9.40;99.90;;;;;;5016721;28;20228;-96
2022/11/23 04:13:34;;;;;;;10.13;5.60;;;9.30;99.90;;;;;;5048629;28;20683;-96
2022/11/23 04:16:02;;;;;;;7.90;4.67;;;9.30;99.90;;;;;;5048227;28;20273;-94
2022/11/23 04:18:28;;;;;;;12.70;6.73;;;9.20;99.90;;;;;;5047418;28;20218;-96
2022/11/23 04:20:54;;;;;;;9.90;3.83;;;9.20;99.90;;;;;;5047772;28;20300;-95
2022/11/23 04:23:20;;;;;;;7.07;4.80;;;9.20;99.90;;;;;;5045931;28;20215;-96
2022/11/23 04:25:46;;;;;;;8.67;5.07;;;9.20;99.90;;;;;;5048221;28;20221;-96
2022/11/23 04:28:12;;;;;;;7.33;4.77;;;9.10;99.90;;;;;;5049776;28;20555;-95
2022/11/23 04:30:38;;;;;;;10.47;4.30;;;9.10;99.90;;;;;;5046907;28;20209;-94
2022/11/23 04:33:04;;;;;;;11.93;4.57;;;9.10;99.90;;;;;;5045431;28;20210;-95
2022/11/23 04:35:30;;;;;;;4.30;3.17;;;9.00;99.90;;;;;;5042928;28;20216;-95
2022/11/23 04:37:56;;;;;;;13.93;7.43;;;9.00;99.90;;;;;;5047986;28;20297;-96
2022/11/23 04:40:22;;;;;;;7.97;5.10;;;9.00;99.90;;;;;;5029279;28;20249;-95
2022/11/23 04:42:49;;;;;;;9.70;6.97;;;8.90;99.90;;;;;;5045767;28;20226;-95
2022/11/23 04:45:17;;;;;;;5.70;4.60;;;8.90;99.90;;;;;;5045532;28;20210;-96
2022/11/23 04:47:43;;;;;;;7.50;5.47;;;8.90;99.90;;;;;;5045861;28;20217;-94
2022/11/23 04:50:09;;;;;;;6.70;5.00;;;8.90;99.90;;;;;;5039756;28;20590;-93
2022/11/23 04:52:35;;;;;;;10.33;6.23;;;8.90;99.90;;;;;;5028264;28;20224;-95
2022/11/23 04:55:00;;;;;;;10.23;5.23;;;8.90;99.90;;;;;;5010073;28;20191;-93
2022/11/23 04:57:26;;;;;;;5.93;5.27;;;8.90;99.90;;;;;;5044264;28;20218;-96
2022/11/23 04:59:52;;;;;;;8.03;7.13;;;9.00;99.90;;;;;;5042415;28;20230;-94
2022/11/23 05:02:18;;;;;;;6.70;5.97;;;9.00;99.90;;;;;;5045262;28;20725;-91
2022/11/23 05:04:44;;;;;;;19.47;4.33;;;9.00;99.90;;;;;;5044779;28;20617;-94
2022/11/23 05:07:10;;;;;;;20.33;7.33;;;9.00;99.90;;;;;;5043170;28;20286;-94
2022/11/23 05:09:36;;;;;;;7.23;4.23;;;9.00;99.90;;;;;;5043131;28;20305;-96
2022/11/23 05:12:02;;;;;;;7.17;5.97;;;9.00;99.90;;;;;;5024065;28;20218;-94
2022/11/23 05:14:28;;;;;;;7.67;6.57;;;9.00;99.90;;;;;;5040282;28;20306;-93
2022/11/23 05:16:54;;;;;;;13.03;7.43;;;9.00;99.90;;;;;;5039814;28;20305;-95
2022/11/23 05:19:20;;;;;;;14.50;6.33;;;9.00;99.90;;;;;;5024754;28;20212;-95
2022/11/23 05:21:46;;;;;;;9.10;5.70;;;9.10;99.90;;;;;;5040194;28;20671;-92
2022/11/23 05:24:12;;;;;;;9.53;4.73;;;9.00;99.90;;;;;;5020238;28;20317;-95
2022/11/23 05:26:37;;;;;;;6.87;5.63;;;9.10;99.90;;;;;;5021312;28;20344;-92
2022/11/23 05:29:03;;;;;;;6.57;4.30;;;9.00;99.90;;;;;;5007153;28;20714;-94
2022/11/23 05:31:29;;;;;;;5.83;5.10;;;9.00;99.90;;;;;;5006537;28;20185;-95
2022/11/23 05:33:55;;;;;;;5.90;5.40;;;9.00;99.90;;;;;;5040671;28;20539;-92
2022/11/23 05:36:21;;;;;;;6.20;4.90;;;9.00;99.90;;;;;;5019173;28;20218;-94
2022/11/23 05:38:46;;;;;;;9.27;4.60;;;9.00;99.90;;;;;;5023397;28;20234;-94
2022/11/23 05:41:13;;;;;;;8.10;4.40;;;9.00;99.90;;;;;;5009466;28;20290;-94
2022/11/23 05:43:39;;;;;;;9.40;4.93;;;9.00;99.90;;;;;;5041092;28;20225;-92
2022/11/23 05:46:05;;;;;;;7.43;5.03;;;9.00;99.90;;;;;;5035788;28;20178;-91
2022/11/23 05:48:30;;;;;;;10.23;5.50;;;9.00;99.90;;;;;;5035379;28;20219;-93
2022/11/23 05:50:56;;;;;;;8.50;5.30;;;9.00;99.90;;;;;;5002613;28;20487;-93
2022/11/23 05:53:22;;;;;;;4.13;3.73;;;9.00;99.90;;;;;;5005966;28;20337;-92
2022/11/23 05:55:48;;;;;;;7.23;4.03;;;9.00;99.90;;;;;;5004541;28;20222;-92
2022/11/23 05:58:13;;;;;;;8.70;6.90;;;9.00;99.90;;;;;;5004061;28;20201;-89
2022/11/23 06:00:39;;;;;;;3.87;3.33;;;9.00;99.90;;;;;;5004712;28;20229;-92
2022/11/23 06:03:05;;;;;;;7.17;4.80;;;9.00;99.90;;;;;;5023266;28;20210;-91
2022/11/23 06:05:31;;;;;;;14.73;5.87;;;9.00;99.90;;;;;;5003113;28;20229;-92
2022/11/23 06:07:57;;;;;;;5.83;5.27;;;9.00;99.90;;;;;;5020881;28;20526;-90
2022/11/23 06:10:22;;;;;;;13.63;5.57;;;9.00;99.90;;;;;;5018534;28;20197;-91
2022/11/23 06:12:48;;;;;;;9.47;7.03;;;9.00;99.90;;;;;;5004309;28;20619;-92
2022/11/23 06:15:15;;;;;;;7.10;6.03;;;9.00;99.90;;;;;;5004489;28;20232;-91
2022/11/23 06:17:40;;;;;;;9.87;5.03;;;9.00;99.90;;;;;;5038223;28;20214;-93
2022/11/23 06:20:07;;;;;;;9.67;5.97;;;9.00;99.90;;;;;;5000798;28;20228;-94
2022/11/23 06:22:33;;;;;;;5.50;4.90;;;9.00;99.90;;;;;;5035106;28;20726;-93
2022/11/23 06:24:59;;;;;;;10.27;6.63;;;9.10;99.90;;;;;;5016122;28;20201;-91
2022/11/23 06:27:25;;;;;;;9.00;4.20;;;9.10;99.90;;;;;;5016568;28;20210;-93
2022/11/23 06:29:51;;;;;;;11.40;8.33;;;9.10;99.90;;;;;;5016107;28;20297;-93
2022/11/23 06:32:17;;;;;;;13.60;7.93;;;9.10;99.90;;;;;;5003156;28;20210;-91
2022/11/23 06:34:42;;;;;;;8.77;6.33;;;9.10;99.90;;;;;;5000786;28;20244;-93
2022/11/23 06:37:09;;;;;;;9.43;7.27;;;9.10;99.90;;;;;;5002995;28;20724;-90
2022/11/23 06:39:35;;;;;;;7.13;5.93;;;9.20;99.90;;;;;;5032132;28;20219;-93
2022/11/23 06:42:00;;;;;;;7.57;4.47;;;9.10;99.90;;;;;;5018425;28;20588;-92
2022/11/23 06:44:26;;;;;;;19.27;7.70;;;9.20;99.90;;;;;;5004069;28;20215;-89
2022/11/23 06:46:52;;;;;;;17.93;6.53;;;9.10;99.90;;;;;;5001008;28;20667;-91
2022/11/23 06:49:19;;;;;;;8.23;6.77;;;9.10;99.90;;;;;;5019543;28;20232;-90
2022/11/23 06:51:45;;;;;;;10.37;3.93;;;9.20;99.90;;;;;;5019888;28;20853;-91
2022/11/23 06:54:11;;;;;;;8.37;6.77;;;9.10;99.90;;;;;;5016939;28;20767;-91
2022/11/23 06:56:37;;;;;;;10.73;5.23;;;9.10;99.90;;;;;;4999673;28;20573;-89
2022/11/23 06:59:03;;;;;;;8.30;7.00;;;9.10;99.90;;;;;;5003068;28;20239;-90
2022/11/23 07:01:29;;;;;;;5.70;5.13;;;9.10;99.90;;;;;;5036102;28;20583;-89
2022/11/23 07:03:55;;;;;;;17.37;7.43;;;9.20;99.90;;;;;;5020612;28;20232;-90
2022/11/23 07:06:20;;;;;;;9.30;5.90;;;9.20;99.90;;;;;;5018724;28;20252;-90
2022/11/23 07:08:46;;;;;;;4.37;3.23;;;9.20;99.90;;;;;;5001730;28;20576;-92
2022/11/23 07:11:12;;;;;;;8.57;4.63;;;9.20;99.90;;;;;;5017872;28;20226;-91
2022/11/23 07:13:38;;;;;;;7.80;6.90;;;9.20;99.90;;;;;;5020672;28;20769;-94
2022/11/23 07:16:05;;;;;;;6.03;3.77;;;9.20;99.90;;;;;;5015040;28;20290;-91
2022/11/23 07:18:31;;;;;;;8.97;6.17;;;9.20;99.90;;;;;;5015079;28;20756;-91
2022/11/23 07:20:58;;;;;;;8.43;5.53;;;9.20;99.90;;;;;;5047107;28;20214;-92
2022/11/23 07:23:24;;;;;;;6.77;6.00;;;9.20;99.90;;;;;;5018083;28;20336;-92
2022/11/23 07:25:50;;;;;;;10.80;5.80;;;9.20;99.90;;;;;;4997755;28;20217;-95
2022/11/23 07:28:17;;;;;;;9.37;4.40;;;9.20;99.90;;;;;;5014252;28;20183;-89
2022/11/23 07:30:43;;;;;;;15.13;4.10;;;9.20;99.90;;;;;;5035799;28;20237;-93
2022/11/23 07:33:11;;;;;;;9.33;5.30;;;9.20;99.90;;;;;;5033545;28;20244;-94
2022/11/23 07:35:38;;;;;;;6.97;5.80;;;9.20;99.90;;;;;;5032346;28;20212;-91
2022/11/23 07:38:08;;;;;;;8.63;4.67;;;9.20;99.90;;;;;;5016983;28;20264;-94
2022/11/23 07:40:37;;;;;;;5.63;3.47;;;9.20;99.90;;;;;;5001627;28;20309;-94
2022/11/23 07:43:05;;;;;;;4.47;3.50;;;9.20;99.90;;;;;;5035426;28;20207;-94
2022/11/23 07:45:32;;;;;;;4.07;3.67;;;9.20;99.90;;;;;;5031378;28;20635;-91
2022/11/23 07:48:05;;;;;;;4.17;3.30;;;9.20;99.90;;;;;;5031296;28;20206;-92
2022/11/23 07:50:33;;;;;;;5.83;3.90;;;9.20;99.90;;;;;;5031109;28;20571;-93
2022/11/23 07:53:01;;;;;;;4.70;4.23;;;9.20;99.90;;;;;;4994722;28;20214;-92
2022/11/23 07:55:27;;;;;;;3.67;3.03;;;9.20;99.90;;;;;;5049057;28;20190;-93
2022/11/23 07:57:54;;;;;;;7.67;6.20;;;9.20;99.90;;;;;;5013143;28;20446;-93
2022/11/23 08:00:25;;;;;;;4.80;4.20;;;9.20;99.90;;;;;;4999615;28;20753;-95
2022/11/23 08:02:50;;;;;;;4.40;3.63;;;9.20;99.90;;;;;;5032232;28;20262;-92
2022/11/23 08:05:16;;;;;;;4.07;3.80;;;9.20;99.90;;;;;;4999447;28;20638;-94
2022/11/23 08:07:43;;;;;;;7.03;4.10;;;9.20;99.90;;;;;;5013593;28;20202;-95
2022/11/23 08:10:11;;;;;;;4.83;2.80;;;9.20;99.90;;;;;;5030094;28;20597;-94
2022/11/23 08:12:36;;;;;;;6.63;4.83;;;9.20;99.90;;;;;;5015283;28;20206;-93
2022/11/23 08:15:03;;;;;;;3.33;3.03;;;9.20;99.90;;;;;;5002044;28;20682;-92
2022/11/23 08:17:28;;;;;;;3.83;3.43;;;9.20;99.90;;;;;;5017447;28;20328;-89
2022/11/23 08:19:54;;;;;;;6.03;3.90;;;9.20;99.90;;;;;;4999490;28;20336;-92
2022/11/23 08:22:21;;;;;;;5.57;3.20;;;9.20;99.90;;;;;;5017066;28;20705;-91
2022/11/23 08:24:47;;;;;;;5.50;3.63;;;9.20;99.90;;;;;;4999374;28;20224;-92
2022/11/23 08:27:16;;;;;;;5.17;3.97;;;9.20;99.90;;;;;;5016382;28;20540;-92
2022/11/23 08:29:41;;;;;;;3.57;3.17;;;9.30;99.90;;;;;;5013133;28;20221;-91
2022/11/23 08:32:07;;;;;;;3.87;3.43;;;9.30;99.90;;;;;;5018660;28;20206;-93
2022/11/23 08:34:33;;;;;;;20.13;3.97;;;9.30;99.90;;;;;;4999422;28;20226;-90
2022/11/23 08:36:59;;;;;;;3.33;2.80;;;9.30;99.90;;;;;;4999486;28;20277;-91
2022/11/23 08:39:24;;;;;;;4.73;3.40;;;9.30;99.90;;;;;;5000655;28;20320;-91
2022/11/23 08:41:50;;;;;;;2.50;2.30;;;9.30;99.90;;;;;;5000436;28;20729;-91
2022/11/23 08:44:16;;;;;;;9.27;4.03;;;9.40;99.90;;;;;;5000617;28;20753;-90
2022/11/23 08:46:42;;;;;;;6.10;2.67;;;9.40;99.90;;;;;;5011815;28;20222;-92
2022/11/23 08:49:07;;;;;;;6.00;2.23;;;9.40;99.90;;;;;;5017415;28;20602;-90
2022/11/23 08:51:33;;;;;;;2.27;2.13;;;9.40;99.90;;;;;;5005909;28;20295;-94
2022/11/23 08:54:01;;;;;;;3.20;2.70;;;9.30;99.90;;;;;;5030206;28;20914;-92
2022/11/23 08:56:30;;;;;;;4.00;2.77;;;9.40;99.90;;;;;;5026100;28;20698;-93
2022/11/23 08:58:56;;;;;;;3.97;2.90;;;9.40;99.90;;;;;;5038053;28;20223;-96
2022/11/23 09:01:22;;;;;;;6.83;3.60;;;9.40;99.90;;;;;;5018616;28;20264;-90
2022/11/23 09:03:48;;;;;;;2.80;2.50;;;9.50;99.90;;;;;;5022897;28;20182;-95
2022/11/23 09:06:15;;;;;;;4.13;3.50;;;9.60;99.90;;;;;;5037385;28;20658;-92
2022/11/23 09:08:41;;;;;;;5.10;4.10;;;9.70;99.90;;;;;;5035007;28;20759;-92
2022/11/23 09:11:10;;;;;;;3.40;2.73;;;9.90;99.90;;;;;;5033010;28;20242;-93
2022/11/23 09:13:37;;;;;;;9.30;3.87;;;10.00;99.90;;;;;;5033993;28;20533;-94
2022/11/23 09:16:04;;;;;;;5.00;2.60;;;10.00;99.90;;;;;;5034587;28;20194;-91
2022/11/23 09:18:31;;;;;;;6.17;3.40;;;10.00;99.90;;;;;;5020081;28;20252;-90
2022/11/23 09:21:00;;;;;;;11.00;3.40;;;10.00;99.90;;;;;;5018944;28;21022;-92
2022/11/23 09:23:26;;;;;;;7.93;4.17;;;9.90;99.90;;;;;;5035271;28;20226;-93
2022/11/23 09:25:52;;;;;;;5.63;3.27;;;9.90;99.90;;;;;;4999399;28;20884;-94
2022/11/23 09:28:18;;;;;;;5.30;3.80;;;9.80;99.90;;;;;;5018652;28;20350;-94
2022/11/23 09:30:46;;;;;;;5.67;5.10;;;9.80;99.90;;;;;;5037164;28;20194;-92
2022/11/23 09:33:13;;;;;;;5.23;4.30;;;9.80;99.90;;;;;;5004616;28;20206;-92
2022/11/23 09:35:39;;;;;;;4.97;3.17;;;9.80;99.90;;;;;;5037491;28;20206;-92
2022/11/23 09:38:05;;;;;;;5.37;3.87;;;9.90;99.90;;;;;;5035453;28;20210;-91
2022/11/23 09:40:35;;;;;;;3.03;2.80;;;9.90;99.90;;;;;;5019682;28;20291;-90
2022/11/23 09:43:34;;;;;;;4.73;3.73;;;9.80;99.90;;;;;;5053164;28;20282;-89
2022/11/23 09:46:10;;;;;;;4.03;2.67;;;9.80;99.90;;;;;;5035576;28;20221;-91
2022/11/23 09:48:54;;;;;;;7.30;1.70;;;9.80;99.90;;;;;;5033880;28;20221;-92
2022/11/23 09:51:24;;;;;;;6.93;3.73;;;9.80;99.90;;;;;;5037571;28;20231;-89
2022/11/23 09:53:59;;;;;;;4.20;2.23;;;9.80;99.90;;;;;;5034183;28;20755;-91
2022/11/23 09:56:33;;;;;;;2.87;2.67;;;9.70;99.90;;;;;;5034838;28;20287;-91
2022/11/23 09:59:02;;;;;;;6.13;3.33;;;9.80;99.90;;;;;;5018897;28;20236;-93
2022/11/23 10:01:31;;;;;;;8.97;4.67;;;9.80;99.90;;;;;;5036751;28;20200;-93
2022/11/23 10:03:57;;;;;;;12.00;5.43;;;9.90;99.90;;;;;;5022532;28;20631;-92
2022/11/23 10:06:33;;;;;;;4.43;2.63;;;9.90;99.90;;;;;;5035235;28;20218;-94
2022/11/23 10:09:17;;;;;;;6.90;4.63;;;9.90;99.90;;;;;;5034030;28;20750;-92
2022/11/23 10:11:47;;;;;;;5.03;2.67;;;9.90;99.90;;;;;;5034540;28;20217;-89
2022/11/23 10:14:46;;;;;;;4.63;2.73;;;9.90;99.90;;;;;;5035145;28;20224;-89
2022/11/23 10:17:36;;;;;;;2.87;2.67;;;9.80;99.90;;;;;;5037507;28;20218;-89
2022/11/23 10:20:11;;;;;;;10.60;2.43;;;10.00;99.90;;;;;;5035468;28;20324;-89
2022/11/23 10:22:59;;;;;;;9.20;4.77;;;9.90;99.90;;;;;;5036277;28;20547;-89
2022/11/23 10:25:32;;;;;;;3.33;3.03;;;10.00;99.90;;;;;;5035312;28;20265;-90
2022/11/23 10:28:01;;;;;;;2.60;1.63;;;10.00;99.90;;;;;;5037918;28;20519;-90
2022/11/23 10:30:27;;;;;;;2.50;2.13;;;9.90;99.90;;;;;;5034079;28;20260;-89
2022/11/23 10:33:16;;;;;;;2.93;2.50;;;9.80;99.90;;;;;;5018575;28;20250;-89
2022/11/23 10:35:42;;;;;;;3.97;3.53;;;9.70;99.90;;;;;;5034145;28;20690;-88
2022/11/23 10:38:14;;;;;;;17.53;3.00;;;9.70;99.90;;;;;;5016442;28;20230;-89
2022/11/23 10:40:54;;;;;;;2.97;1.47;;;9.80;99.90;;;;;;5034691;28;20231;-92
2022/11/23 10:43:25;;;;;;;2.33;2.20;;;9.90;99.90;;;;;;5033402;28;20650;-90
2022/11/23 10:46:12;;;;;;;2.57;2.37;;;9.80;99.90;;;;;;5037242;28;20559;-90
2022/11/23 10:48:38;;;;;;;2.20;1.40;;;9.90;99.90;;;;;;5027501;28;20215;-91
2022/11/23 10:51:31;;;;;;;2.50;2.30;;;10.00;99.90;;;;;;4997523;28;20769;-90
2022/11/23 10:54:03;;;;;;;4.60;1.87;;;10.10;99.90;;;;;;5031340;28;20203;-89
2022/11/23 10:56:30;;;;;;;3.17;1.60;;;10.20;99.90;;;;;;5030983;28;20683;-91
2022/11/23 10:58:56;;;;;;;3.07;2.73;;;10.30;99.90;;;;;;5017840;28;20210;-92
2022/11/23 11:01:28;;;;;;;1.03;0.77;;;10.30;99.90;;;;;;5016916;28;20270;-92
2022/11/23 11:03:58;;;;;;;5.87;1.67;;;10.20;99.90;;;;;;5046883;28;20197;-89
2022/11/23 11:06:27;;;;;;;3.50;1.60;;;10.20;99.90;;;;;;5018038;28;20717;-90
2022/11/23 11:09:18;;;;;;;1.07;1.03;;;10.20;99.90;;;;;;5034856;28;20713;-91
2022/11/23 11:11:51;;;;;;;2.40;1.80;;;10.30;99.90;;;;;;5034323;28;20714;-89
2022/11/23 11:14:18;;;;;;;3.00;2.67;;;10.40;99.90;;;;;;5015499;28;20230;-88
2022/11/23 11:16:52;;;;;;;1.57;1.47;;;10.40;99.90;;;;;;5033780;28;20810;-89
2022/11/23 11:19:28;;;;;;;1.93;1.47;;;10.40;99.90;;;;;;5034682;28;20180;-90
2022/11/23 11:21:55;;;;;;;3.70;1.20;;;10.40;99.90;;;;;;5034344;28;20198;-90
2022/11/23 11:24:45;;;;;;;2.80;0.83;;;10.40;99.90;;;;;;5033167;28;20585;-91
2022/11/23 11:27:31;;;;;;;1.33;1.23;;;10.40;99.90;;;;;;5034341;28;20264;-89
2022/11/23 11:30:04;;;;;;;2.73;1.73;;;10.40;99.90;;;;;;5034030;28;20210;-89
2022/11/23 11:32:37;;;;;;;1.20;1.00;;;10.40;99.90;;;;;;5033675;28;20690;-89
2022/11/23 11:35:26;;;;;;;1.53;1.43;;;10.40;99.90;;;;;;5050049;28;20283;-89
2022/11/23 11:37:59;;;;;;;0.90;0.70;;;10.40;99.90;;;;;;5034389;28;20684;-92
2022/11/23 11:40:45;;;;;;;1.97;1.50;;;10.40;99.90;;;;;;5034656;28;21231;-91
2022/11/23 11:43:26;;;;;;;0.37;0.37;;;10.50;99.90;;;;;;5033451;28;20255;-91
2022/11/23 11:45:56;;;;;;;2.13;0.93;;;10.50;99.90;;;;;;5037098;28;20682;-92
2022/11/23 11:48:42;;;;;;;3.37;1.53;;;10.50;99.90;;;;;;5033963;28;20254;-94
2022/11/23 11:51:39;;;;;;;1.07;1.03;;;10.40;99.90;;;;;;5035121;28;20242;-95
2022/11/23 11:54:10;;;;;;;1.10;1.07;;;10.40;99.90;;;;;;5037470;28;20647;-91
2022/11/23 11:57:02;;;;;;;5.80;1.30;;;10.40;99.90;;;;;;5032595;28;20226;-89
2022/11/23 11:59:41;;;;;;;2.70;1.10;;;10.30;99.90;;;;;;5025781;28;20210;-94
2022/11/23 12:02:26;;;;;;;4.70;0.60;;;10.40;99.90;;;;;;5029291;28;20236;-95
2022/11/23 12:05:15;;;;;;;2.47;0.73;;;10.70;99.90;;;;;;5033344;28;20248;-92
2022/11/23 12:08:02;;;;;;;2.77;2.00;;;10.80;99.90;;;;;;5033353;28;20678;-93
2022/11/23 12:10:35;;;;;;;0.53;0.53;;;10.80;99.90;;;;;;5031772;28;20548;-91
2022/11/23 12:13:01;;;;;;;2.20;1.13;;;10.80;99.90;;;;;;5049253;28;20301;-94
2022/11/23 12:15:40;;;;;;;1.20;0.93;;;10.80;99.90;;;;;;4998398;28;20757;-92
2022/11/23 12:18:33;;;;;;;3.17;0.60;;;10.90;99.90;;;;;;5049387;28;20236;-91
2022/11/23 12:21:03;;;;;;;3.27;0.90;;;10.80;99.90;;;;;;5031780;28;20267;-91
2022/11/23 12:23:53;;;;;;;0.70;0.70;;;10.60;99.90;;;;;;5034727;28;20214;-92
2022/11/23 12:26:36;;;;;;;2.83;1.10;;;10.50;99.90;;;;;;5038156;28;20222;-93
2022/11/23 12:29:17;;;;;;;9.70;1.33;;;10.50;99.90;;;;;;5037397;28;20287;-96
2022/11/23 12:31:52;;;;;;;10.87;1.37;;;10.70;99.90;;;;;;5039262;28;20248;-95
2022/11/23 12:34:27;;;;;;;1.03;0.97;;;10.90;99.90;;;;;;5037451;28;20178;-92
2022/11/23 12:36:58;;;;;;;0.80;0.80;;;11.00;99.90;;;;;;5035103;28;20178;-93
2022/11/23 12:39:27;;;;;;;3.27;1.00;;;11.10;99.90;;;;;;5034353;28;20245;-91
2022/11/23 12:42:09;;;;;;;2.33;1.20;;;11.00;99.90;;;;;;5036319;28;20272;-95
2022/11/23 12:44:48;;;;;;;0.77;0.60;;;11.00;99.90;;;;;;5037810;28;20572;-93
2022/11/23 12:47:34;;;;;;;5.07;1.10;;;10.90;99.90;;;;;;5030888;28;20226;-92
2022/11/23 12:50:17;;;;;;;1.97;1.20;;;11.00;99.90;;;;;;5053705;28;20764;-95
2022/11/23 12:52:58;;;;;;;0.60;0.50;;;11.00;99.90;;;;;;5034409;28;20506;-93
2022/11/23 12:55:33;;;;;;;2.63;1.50;;;11.00;99.90;;;;;;5036083;28;20919;-92
2022/11/23 12:58:10;;;;;;;4.47;0.77;;;10.90;99.90;;;;;;5035570;28;20190;-93
2022/11/23 13:00:42;;;;;;;2.80;0.80;;;10.90;99.90;;;;;;5034591;28;20265;-94
2022/11/23 13:03:20;;;;;;;1.33;0.70;;;10.80;99.90;;;;;;5034398;28;20232;-92
2022/11/23 13:06:05;;;;;;;2.70;0.57;;;10.80;99.90;;;;;;5034337;28;20225;-93